sensor_id;sensor_type;location;lat;lon;timestamp;pressure;altitude;pressure_sealevel;temperature;humidity
51617;BME280;37697;52.588;13.394;2022-10-16T00:03:15;100624.85;;;14.94;82.58
51617;BME280;37697;52.588;13.394;2022-10-16T00:08:16;100630.40;;;14.94;82.65
51617;BME280;37697;52.588;13.394;2022-10-16T00:13:16;100630.65;;;14.95;82.76
51617;BME280;37697;52.588;13.394;2022-10-16T00:18:18;100633.89;;;14.97;82.90
51617;BME280;37697;52.588;13.394;2022-10-16T00:23:19;100641.30;;;15.00;82.85
51617;BME280;37697;52.588;13.394;2022-10-16T00:28:19;100644.07;;;15.00;82.88
51617;BME280;37697;52.588;13.394;2022-10-16T00:33:20;100647.09;;;15.01;83.00
51617;BME280;37697;52.588;13.394;2022-10-16T00:38:22;100651.25;;;15.01;82.88
51617;BME280;37697;52.588;13.394;2022-10-16T00:48:52;100658.41;;;15.02;82.87
51617;BME280;37697;52.588;13.394;2022-10-16T00:53:55;100652.86;;;15.02;83.00
51617;BME280;37697;52.588;13.394;2022-10-16T00:58:56;100654.03;;;15.01;83.03
51617;BME280;37697;52.588;13.394;2022-10-16T01:03:57;100656.55;;;15.00;83.25
51617;BME280;37697;52.588;13.394;2022-10-16T01:09:04;100672.72;;;14.97;83.16
51617;BME280;37697;52.588;13.394;2022-10-16T01:14:27;100667.64;;;15.00;83.27
51617;BME280;37697;52.588;13.394;2022-10-16T01:24:47;100673.19;;;15.00;83.26
51617;BME280;37697;52.588;13.394;2022-10-16T01:30:10;100676.55;;;14.99;83.52
51617;BME280;37697;52.588;13.394;2022-10-16T01:35:25;100680.70;;;14.99;83.45
51617;BME280;37697;52.588;13.394;2022-10-16T01:40:29;100685.67;;;15.00;83.54
51617;BME280;37697;52.588;13.394;2022-10-16T01:45:31;100690.08;;;15.01;83.58
51617;BME280;37697;52.588;13.394;2022-10-16T01:50:33;100701.50;;;14.99;83.67
51617;BME280;37697;52.588;13.394;2022-10-16T01:55:37;100692.38;;;14.98;83.73
51617;BME280;37697;52.588;13.394;2022-10-16T02:00:40;100694.57;;;14.99;83.63
51617;BME280;37697;52.588;13.394;2022-10-16T02:05:47;100695.70;;;14.98;83.74
51617;BME280;37697;52.588;13.394;2022-10-16T02:10:54;100693.77;;;14.98;83.75
51617;BME280;37697;52.588;13.394;2022-10-16T02:15:55;100713.17;;;14.98;83.76
51617;BME280;37697;52.588;13.394;2022-10-16T02:21:00;100702.09;;;14.98;83.85
51617;BME280;37697;52.588;13.394;2022-10-16T02:26:13;100723.80;;;14.96;83.81
51617;BME280;37697;52.588;13.394;2022-10-16T02:31:16;100724.34;;;14.96;83.76
51617;BME280;37697;52.588;13.394;2022-10-16T02:36:18;100726.56;;;14.96;83.77
51617;BME280;37697;52.588;13.394;2022-10-16T02:41:20;100731.86;;;14.95;83.95
51617;BME280;37697;52.588;13.394;2022-10-16T02:46:21;100745.47;;;14.94;84.04
51617;BME280;37697;52.588;13.394;2022-10-16T02:51:22;100732.77;;;14.93;83.96
51617;BME280;37697;52.588;13.394;2022-10-16T02:56:23;100733.58;;;14.94;83.85
51617;BME280;37697;52.588;13.394;2022-10-16T03:01:24;100734.70;;;14.93;83.80
51617;BME280;37697;52.588;13.394;2022-10-16T03:06:24;100741.16;;;14.91;83.71
51617;BME280;37697;52.588;13.394;2022-10-16T03:11:25;100740.69;;;14.89;83.63
51617;BME280;37697;52.588;13.394;2022-10-16T03:16:26;100743.46;;;14.89;83.54
51617;BME280;37697;52.588;13.394;2022-10-16T03:21:27;100750.50;;;14.86;83.45
51617;BME280;37697;52.588;13.394;2022-10-16T03:26:27;100752.80;;;14.84;83.29
51617;BME280;37697;52.588;13.394;2022-10-16T03:31:28;100769.83;;;14.80;83.13
51617;BME280;37697;52.588;13.394;2022-10-16T03:36:28;100767.01;;;14.74;83.04
51617;BME280;37697;52.588;13.394;2022-10-16T03:41:29;100769.80;;;14.65;82.87
51617;BME280;37697;52.588;13.394;2022-10-16T03:46:30;100776.47;;;14.55;82.73
51617;BME280;37697;52.588;13.394;2022-10-16T03:51:30;100779.83;;;14.46;82.69
51617;BME280;37697;52.588;13.394;2022-10-16T03:56:31;100793.95;;;14.38;82.77
51617;BME280;37697;52.588;13.394;2022-10-16T04:01:32;100808.88;;;14.31;82.78
51617;BME280;37697;52.588;13.394;2022-10-16T04:06:32;100809.42;;;14.31;83.23
51617;BME280;37697;52.588;13.394;2022-10-16T04:11:33;100809.52;;;14.28;83.17
51617;BME280;37697;52.588;13.394;2022-10-16T04:16:33;100812.28;;;14.28;83.37
51617;BME280;37697;52.588;13.394;2022-10-16T04:21:34;100820.44;;;14.25;83.35
51617;BME280;37697;52.588;13.394;2022-10-16T04:26:34;100819.85;;;14.16;83.36
51617;BME280;37697;52.588;13.394;2022-10-16T04:31:35;100816.12;;;14.12;83.65
51617;BME280;37697;52.588;13.394;2022-10-16T04:36:35;100818.14;;;14.09;84.09
51617;BME280;37697;52.588;13.394;2022-10-16T04:41:36;100806.48;;;14.10;84.55
51617;BME280;37697;52.588;13.394;2022-10-16T04:46:36;100810.64;;;14.10;84.78
51617;BME280;37697;52.588;13.394;2022-10-16T04:51:37;100804.62;;;14.08;84.67
51617;BME280;37697;52.588;13.394;2022-10-16T04:56:38;100799.08;;;14.08;84.78
51617;BME280;37697;52.588;13.394;2022-10-16T05:01:40;100796.15;;;14.04;84.69
51617;BME280;37697;52.588;13.394;2022-10-16T05:06:41;100801.30;;;13.99;84.52
51617;BME280;37697;52.588;13.394;2022-10-16T05:11:42;100818.30;;;13.95;84.32
51617;BME280;37697;52.588;13.394;2022-10-16T05:16:43;100829.03;;;13.88;84.25
51617;BME280;37697;52.588;13.394;2022-10-16T05:21:44;100832.76;;;13.83;84.51
51617;BME280;37697;52.588;13.394;2022-10-16T05:26:44;100845.88;;;13.80;84.58
51617;BME280;37697;52.588;13.394;2022-10-16T05:31:45;100837.64;;;13.78;84.94
51617;BME280;37697;52.588;13.394;2022-10-16T05:36:46;100841.56;;;13.77;85.09
51617;BME280;37697;52.588;13.394;2022-10-16T05:41:46;100836.83;;;13.77;85.37
51617;BME280;37697;52.588;13.394;2022-10-16T05:46:47;100848.71;;;13.78;85.22
51617;BME280;37697;52.588;13.394;2022-10-16T05:51:47;100860.10;;;13.76;85.23
51617;BME280;37697;52.588;13.394;2022-10-16T05:56:48;100869.16;;;13.79;85.51
51617;BME280;37697;52.588;13.394;2022-10-16T06:01:48;100859.63;;;13.83;85.83
51617;BME280;37697;52.588;13.394;2022-10-16T06:06:49;100860.95;;;13.86;85.82
51617;BME280;37697;52.588;13.394;2022-10-16T06:11:49;100869.11;;;13.91;86.04
51617;BME280;37697;52.588;13.394;2022-10-16T06:16:50;100878.39;;;13.95;85.91
51617;BME280;37697;52.588;13.394;2022-10-16T06:21:50;100876.86;;;14.00;86.26
51617;BME280;37697;52.588;13.394;2022-10-16T06:26:51;100875.72;;;14.10;86.55
51617;BME280;37697;52.588;13.394;2022-10-16T06:31:51;100879.88;;;14.18;86.50
51617;BME280;37697;52.588;13.394;2022-10-16T06:36:53;100877.22;;;14.25;86.49
51617;BME280;37697;52.588;13.394;2022-10-16T06:41:53;100901.16;;;14.29;86.40
51617;BME280;37697;52.588;13.394;2022-10-16T06:46:54;100907.20;;;14.31;86.23
51617;BME280;37697;52.588;13.394;2022-10-16T06:51:55;100915.69;;;14.35;86.27
51617;BME280;37697;52.588;13.394;2022-10-16T06:56:55;100919.11;;;14.40;86.19
51617;BME280;37697;52.588;13.394;2022-10-16T07:01:56;100922.78;;;14.47;86.24
51617;BME280;37697;52.588;13.394;2022-10-16T07:06:56;100914.41;;;14.58;86.12
51617;BME280;37697;52.588;13.394;2022-10-16T07:11:57;100927.53;;;14.73;86.37
51617;BME280;37697;52.588;13.394;2022-10-16T07:16:57;100941.87;;;14.75;85.96
51617;BME280;37697;52.588;13.394;2022-10-16T07:21:58;100951.83;;;14.85;85.98
51617;BME280;37697;52.588;13.394;2022-10-16T07:26:59;100952.63;;;14.94;86.03
51617;BME280;37697;52.588;13.394;2022-10-16T07:31:59;100939.34;;;15.02;85.83
51617;BME280;37697;52.588;13.394;2022-10-16T07:37:01;100945.42;;;15.10;85.72
51617;BME280;37697;52.588;13.394;2022-10-16T07:42:02;100947.86;;;15.21;85.60
51617;BME280;37697;52.588;13.394;2022-10-16T07:47:02;100945.16;;;15.27;85.61
51617;BME280;37697;52.588;13.394;2022-10-16T07:52:03;100959.72;;;15.39;85.43
51617;BME280;37697;52.588;13.394;2022-10-16T07:57:03;100951.63;;;15.48;85.38
51617;BME280;37697;52.588;13.394;2022-10-16T08:02:04;100947.18;;;15.56;85.36
51617;BME280;37697;52.588;13.394;2022-10-16T08:07:06;100954.05;;;15.59;85.00
51617;BME280;37697;52.588;13.394;2022-10-16T08:12:07;100980.89;;;15.61;85.08
51617;BME280;37697;52.588;13.394;2022-10-16T08:17:10;100991.09;;;15.63;84.96
51617;BME280;37697;52.588;13.394;2022-10-16T08:22:14;100994.82;;;15.67;84.95
51617;BME280;37697;52.588;13.394;2022-10-16T08:27:14;100980.21;;;15.72;84.84
51617;BME280;37697;52.588;13.394;2022-10-16T08:32:15;100976.92;;;15.79;84.77
51617;BME280;37697;52.588;13.394;2022-10-16T08:37:15;100995.52;;;15.87;84.68
51617;BME280;37697;52.588;13.394;2022-10-16T08:42:19;100994.20;;;15.94;84.42
51617;BME280;37697;52.588;13.394;2022-10-16T08:47:22;100993.80;;;16.04;84.40
51617;BME280;37697;52.588;13.394;2022-10-16T08:52:42;101000.05;;;16.16;84.27
51617;BME280;37697;52.588;13.394;2022-10-16T08:57:43;100992.73;;;16.26;83.88
51617;BME280;37697;52.588;13.394;2022-10-16T09:08:11;101009.19;;;16.46;83.42
51617;BME280;37697;52.588;13.394;2022-10-16T09:18:29;101028.00;;;16.85;82.80
51617;BME280;37697;52.588;13.394;2022-10-16T09:23:30;101033.63;;;16.97;82.66
51617;BME280;37697;52.588;13.394;2022-10-16T09:28:36;101028.03;;;17.12;81.92
51617;BME280;37697;52.588;13.394;2022-10-16T09:33:37;101026.33;;;17.20;82.05
51617;BME280;37697;52.588;13.394;2022-10-16T09:38:39;101035.18;;;17.28;81.76
51617;BME280;37697;52.588;13.394;2022-10-16T09:43:41;101019.45;;;17.38;81.14
51617;BME280;37697;52.588;13.394;2022-10-16T09:48:50;101031.77;;;17.56;81.41
51617;BME280;37697;52.588;13.394;2022-10-16T09:54:02;101046.91;;;17.73;80.70
51617;BME280;37697;52.588;13.394;2022-10-16T09:59:10;101054.23;;;17.72;79.92
51617;BME280;37697;52.588;13.394;2022-10-16T10:04:16;101062.38;;;17.83;79.90
51617;BME280;37697;52.588;13.394;2022-10-16T10:09:24;101060.27;;;18.19;79.23
51617;BME280;37697;52.588;13.394;2022-10-16T10:14:34;101065.95;;;18.48;78.38
51617;BME280;37697;52.588;13.394;2022-10-16T10:30:18;101082.42;;;18.04;77.14
51617;BME280;37697;52.588;13.394;2022-10-16T10:35:40;101078.80;;;18.03;76.80
51617;BME280;37697;52.588;13.394;2022-10-16T10:41:17;101101.13;;;18.09;77.24
51617;BME280;37697;52.588;13.394;2022-10-16T10:46:21;101113.88;;;18.10;76.62
51617;BME280;37697;52.588;13.394;2022-10-16T10:56:41;101102.17;;;18.11;76.51
51617;BME280;37697;52.588;13.394;2022-10-16T11:01:48;101102.42;;;18.49;76.61
51617;BME280;37697;52.588;13.394;2022-10-16T11:06:51;101099.77;;;18.83;75.47
51617;BME280;37697;52.588;13.394;2022-10-16T11:11:56;101095.08;;;18.93;74.94
51617;BME280;37697;52.588;13.394;2022-10-16T11:17:16;101114.19;;;18.85;73.83
51617;BME280;37697;52.588;13.394;2022-10-16T11:37:56;101103.00;;;18.73;73.74
51617;BME280;37697;52.588;13.394;2022-10-16T11:43:06;101099.52;;;18.70;72.71
51617;BME280;37697;52.588;13.394;2022-10-16T11:53:38;101095.61;;;19.18;70.79
51617;BME280;37697;52.588;13.394;2022-10-16T11:58:57;101107.78;;;19.38;69.67
51617;BME280;37697;52.588;13.394;2022-10-16T12:09:29;101106.70;;;19.70;68.45
51617;BME280;37697;52.588;13.394;2022-10-16T12:19:35;101127.72;;;20.08;65.43
51617;BME280;37697;52.588;13.394;2022-10-16T12:24:36;101131.66;;;20.14;65.43
51617;BME280;37697;52.588;13.394;2022-10-16T12:29:39;101129.67;;;20.30;65.43
51617;BME280;37697;52.588;13.394;2022-10-16T12:34:43;101131.97;;;20.34;64.60
51617;BME280;37697;52.588;13.394;2022-10-16T12:39:44;101143.22;;;20.44;62.61
51617;BME280;37697;52.588;13.394;2022-10-16T12:44:45;101143.51;;;20.49;63.03
51617;BME280;37697;52.588;13.394;2022-10-16T12:49:50;101147.44;;;20.54;62.72
51617;BME280;37697;52.588;13.394;2022-10-16T12:54:55;101148.12;;;20.63;61.71
51617;BME280;37697;52.588;13.394;2022-10-16T13:05:21;101156.97;;;20.75;60.41
51617;BME280;37697;52.588;13.394;2022-10-16T13:10:28;101157.47;;;20.87;59.78
51617;BME280;37697;52.588;13.394;2022-10-16T13:20:54;101176.53;;;20.81;59.22
51617;BME280;37697;52.588;13.394;2022-10-16T13:31:17;101194.58;;;20.68;58.29
51617;BME280;37697;52.588;13.394;2022-10-16T13:36:25;101199.43;;;20.55;58.12
51617;BME280;37697;52.588;13.394;2022-10-16T13:41:23;101206.69;;;20.50;58.41
51617;BME280;37697;52.588;13.394;2022-10-16T13:46:24;101201.44;;;20.32;58.94
51617;BME280;37697;52.588;13.394;2022-10-16T13:51:25;101199.49;;;20.26;58.08
51617;BME280;37697;52.588;13.394;2022-10-16T13:56:32;101201.81;;;20.08;57.94
51617;BME280;37697;52.588;13.394;2022-10-16T14:01:31;101197.22;;;19.94;57.30
51617;BME280;37697;52.588;13.394;2022-10-16T14:06:43;101203.98;;;19.87;57.76
51617;BME280;37697;52.588;13.394;2022-10-16T14:12:01;101207.62;;;19.81;57.41
51617;BME280;37697;52.588;13.394;2022-10-16T14:16:51;101213.59;;;19.74;57.62
51617;BME280;37697;52.588;13.394;2022-10-16T14:21:52;101210.80;;;19.61;57.77
51617;BME280;37697;52.588;13.394;2022-10-16T14:26:53;101223.27;;;19.58;57.20
51617;BME280;37697;52.588;13.394;2022-10-16T14:31:59;101223.06;;;19.50;57.96
51617;BME280;37697;52.588;13.394;2022-10-16T14:42:24;101228.91;;;19.33;58.22
51617;BME280;37697;52.588;13.394;2022-10-16T14:47:25;101228.67;;;19.20;58.81
51617;BME280;37697;52.588;13.394;2022-10-16T14:52:26;101238.80;;;19.06;58.75
51617;BME280;37697;52.588;13.394;2022-10-16T14:57:27;101242.53;;;18.98;58.99
51617;BME280;37697;52.588;13.394;2022-10-16T15:02:31;101245.55;;;18.92;59.34
51617;BME280;37697;52.588;13.394;2022-10-16T15:07:34;101255.80;;;18.88;59.46
51617;BME280;37697;52.588;13.394;2022-10-16T15:12:35;101251.23;;;18.90;59.62
51617;BME280;37697;52.588;13.394;2022-10-16T15:17:35;101247.98;;;18.88;59.51
51617;BME280;37697;52.588;13.394;2022-10-16T15:22:36;101267.47;;;18.69;59.08
51617;BME280;37697;52.588;13.394;2022-10-16T15:27:36;101269.18;;;18.55;58.98
51617;BME280;37697;52.588;13.394;2022-10-16T15:32:39;101277.89;;;18.48;59.11
51617;BME280;37697;52.588;13.394;2022-10-16T15:37:39;101282.38;;;18.40;59.18
51617;BME280;37697;52.588;13.394;2022-10-16T15:42:40;101293.94;;;18.24;59.06
51617;BME280;37697;52.588;13.394;2022-10-16T15:47:41;101293.30;;;18.12;59.48
51617;BME280;37697;52.588;13.394;2022-10-16T15:52:42;101300.12;;;18.02;59.60
51617;BME280;37697;52.588;13.394;2022-10-16T15:57:43;101314.53;;;17.89;60.02
51617;BME280;37697;52.588;13.394;2022-10-16T16:02:48;101327.47;;;17.79;60.19
51617;BME280;37697;52.588;13.394;2022-10-16T16:07:50;101329.92;;;17.66;60.50
51617;BME280;37697;52.588;13.394;2022-10-16T16:12:51;101336.31;;;17.51;60.68
51617;BME280;37697;52.588;13.394;2022-10-16T16:17:52;101340.14;;;17.38;61.04
51617;BME280;37697;52.588;13.394;2022-10-16T16:22:53;101343.83;;;17.21;61.44
51617;BME280;37697;52.588;13.394;2022-10-16T16:27:54;101358.89;;;16.96;61.82
51617;BME280;37697;52.588;13.394;2022-10-16T16:32:55;101359.66;;;16.73;62.18
51617;BME280;37697;52.588;13.394;2022-10-16T16:37:56;101377.11;;;16.50;62.56
51617;BME280;37697;52.588;13.394;2022-10-16T16:42:56;101373.59;;;16.29;62.84
51617;BME280;37697;52.588;13.394;2022-10-16T16:47:57;101391.73;;;16.09;63.13
51617;BME280;37697;52.588;13.394;2022-10-16T16:52:57;101400.41;;;15.88;63.54
51617;BME280;37697;52.588;13.394;2022-10-16T16:57:58;101409.02;;;15.69;63.86
51617;BME280;37697;52.588;13.394;2022-10-16T17:02:58;101431.29;;;15.46;64.08
51617;BME280;37697;52.588;13.394;2022-10-16T17:07:59;101433.80;;;15.25;64.43
51617;BME280;37697;52.588;13.394;2022-10-16T17:13:00;101438.17;;;15.06;64.73
51617;BME280;37697;52.588;13.394;2022-10-16T17:18:00;101438.67;;;14.86;65.04
51617;BME280;37697;52.588;13.394;2022-10-16T17:23:01;101451.05;;;14.68;65.36
51617;BME280;37697;52.588;13.394;2022-10-16T17:28:02;101461.38;;;14.51;65.65
51617;BME280;37697;52.588;13.394;2022-10-16T17:33:03;101466.69;;;14.36;66.00
51617;BME280;37697;52.588;13.394;2022-10-16T17:38:05;101474.20;;;14.22;66.17
51617;BME280;37697;52.588;13.394;2022-10-16T17:43:06;101485.30;;;14.08;66.48
51617;BME280;37697;52.588;13.394;2022-10-16T17:48:07;101489.48;;;13.94;66.78
51617;BME280;37697;52.588;13.394;2022-10-16T17:53:08;101493.33;;;13.82;67.07
51617;BME280;37697;52.588;13.394;2022-10-16T17:58:09;101496.38;;;13.67;67.31
51617;BME280;37697;52.588;13.394;2022-10-16T18:03:10;101500.45;;;13.55;67.60
51617;BME280;37697;52.588;13.394;2022-10-16T18:08:12;101496.23;;;13.44;67.75
51617;BME280;37697;52.588;13.394;2022-10-16T18:13:12;101506.69;;;13.31;67.81
51617;BME280;37697;52.588;13.394;2022-10-16T18:18:13;101500.55;;;13.17;68.04
51617;BME280;37697;52.588;13.394;2022-10-16T18:23:14;101505.45;;;13.04;68.30
51617;BME280;37697;52.588;13.394;2022-10-16T18:28:15;101516.48;;;12.90;68.44
51617;BME280;37697;52.588;13.394;2022-10-16T18:33:16;101519.17;;;12.76;68.72
51617;BME280;37697;52.588;13.394;2022-10-16T18:38:16;101519.02;;;12.67;68.98
51617;BME280;37697;52.588;13.394;2022-10-16T18:43:17;101535.73;;;12.57;69.16
51617;BME280;37697;52.588;13.394;2022-10-16T18:48:18;101548.58;;;12.48;69.42
51617;BME280;37697;52.588;13.394;2022-10-16T18:53:19;101553.66;;;12.38;69.55
51617;BME280;37697;52.588;13.394;2022-10-16T18:58:21;101564.83;;;12.28;69.73
51617;BME280;37697;52.588;13.394;2022-10-16T19:03:22;101574.08;;;12.18;69.83
51617;BME280;37697;52.588;13.394;2022-10-16T19:08:24;101565.63;;;12.07;69.99
51617;BME280;37697;52.588;13.394;2022-10-16T19:13:25;101549.95;;;12.02;70.42
51617;BME280;37697;52.588;13.394;2022-10-16T19:18:26;101569.90;;;11.97;70.70
51617;BME280;37697;52.588;13.394;2022-10-16T19:23:28;101589.53;;;11.90;70.81
51617;BME280;37697;52.588;13.394;2022-10-16T19:28:28;101591.81;;;11.83;70.94
51617;BME280;37697;52.588;13.394;2022-10-16T19:33:29;101582.77;;;11.74;71.13
51617;BME280;37697;52.588;13.394;2022-10-16T19:38:30;101580.91;;;11.67;71.18
51617;BME280;37697;52.588;13.394;2022-10-16T19:43:31;101583.15;;;11.63;71.56
51617;BME280;37697;52.588;13.394;2022-10-16T19:48:32;101600.55;;;11.61;71.78
51617;BME280;37697;52.588;13.394;2022-10-16T19:53:33;101606.39;;;11.56;71.93
51617;BME280;37697;52.588;13.394;2022-10-16T19:58:33;101604.77;;;11.53;72.11
51617;BME280;37697;52.588;13.394;2022-10-16T20:03:34;101604.77;;;11.53;72.42
51617;BME280;37697;52.588;13.394;2022-10-16T20:08:35;101618.31;;;11.49;72.56
51617;BME280;37697;52.588;13.394;2022-10-16T20:13:37;101618.06;;;11.46;72.72
51617;BME280;37697;52.588;13.394;2022-10-16T20:18:38;101628.57;;;11.44;72.88
51617;BME280;37697;52.588;13.394;2022-10-16T20:23:40;101633.84;;;11.37;72.98
51617;BME280;37697;52.588;13.394;2022-10-16T20:28:41;101638.54;;;11.34;73.24
51617;BME280;37697;52.588;13.394;2022-10-16T20:33:43;101644.09;;;11.29;73.35
51617;BME280;37697;52.588;13.394;2022-10-16T20:38:44;101649.66;;;11.24;73.45
51617;BME280;37697;52.588;13.394;2022-10-16T20:43:46;101658.22;;;11.20;73.52
51617;BME280;37697;52.588;13.394;2022-10-16T20:48:47;101655.48;;;11.15;73.63
51617;BME280;37697;52.588;13.394;2022-10-16T20:53:51;101663.79;;;11.12;73.83
51617;BME280;37697;52.588;13.394;2022-10-16T20:58:57;101658.86;;;11.07;74.04
51617;BME280;37697;52.588;13.394;2022-10-16T21:03:59;101660.49;;;11.08;74.25
51617;BME280;37697;52.588;13.394;2022-10-16T21:09:02;101654.98;;;11.08;74.59
51617;BME280;37697;52.588;13.394;2022-10-16T21:14:06;101662.44;;;11.07;74.73
51617;BME280;37697;52.588;13.394;2022-10-16T21:19:07;101664.91;;;11.09;74.84
51617;BME280;37697;52.588;13.394;2022-10-16T21:24:08;101683.92;;;11.08;75.02
51617;BME280;37697;52.588;13.394;2022-10-16T21:29:09;101672.08;;;11.07;75.27
51617;BME280;37697;52.588;13.394;2022-10-16T21:34:09;101669.05;;;11.09;75.51
51617;BME280;37697;52.588;13.394;2022-10-16T21:39:11;101681.70;;;11.10;75.65
51617;BME280;37697;52.588;13.394;2022-10-16T21:44:15;101693.30;;;11.09;75.72
51617;BME280;37697;52.588;13.394;2022-10-16T21:49:17;101702.13;;;11.09;75.93
51617;BME280;37697;52.588;13.394;2022-10-16T21:54:19;101712.59;;;11.09;76.17
51617;BME280;37697;52.588;13.394;2022-10-16T21:59:21;101732.70;;;11.10;76.29
51617;BME280;37697;52.588;13.394;2022-10-16T22:04:22;101729.97;;;11.07;76.38
51617;BME280;37697;52.588;13.394;2022-10-16T22:09:22;101725.83;;;11.05;76.44
51617;BME280;37697;52.588;13.394;2022-10-16T22:14:23;101727.80;;;11.02;76.55
51617;BME280;37697;52.588;13.394;2022-10-16T22:19:24;101736.62;;;10.98;76.59
51617;BME280;37697;52.588;13.394;2022-10-16T22:24:25;101716.23;;;10.97;76.60
51617;BME280;37697;52.588;13.394;2022-10-16T22:29:25;101707.42;;;10.92;76.62
51617;BME280;37697;52.588;13.394;2022-10-16T22:34:26;101711.59;;;10.87;76.61
51617;BME280;37697;52.588;13.394;2022-10-16T22:39:28;101702.51;;;10.84;76.79
51617;BME280;37697;52.588;13.394;2022-10-16T22:44:29;101711.89;;;10.80;76.83
51617;BME280;37697;52.588;13.394;2022-10-16T22:49:30;101720.45;;;10.74;76.84
51617;BME280;37697;52.588;13.394;2022-10-16T22:54:30;101727.64;;;10.70;76.94
51617;BME280;37697;52.588;13.394;2022-10-16T22:59:31;101722.12;;;10.67;77.09
51617;BME280;37697;52.588;13.394;2022-10-16T23:04:31;101722.98;;;10.62;77.16
51617;BME280;37697;52.588;13.394;2022-10-16T23:09:32;101738.37;;;10.63;77.19
51617;BME280;37697;52.588;13.394;2022-10-16T23:14:32;101751.33;;;10.60;77.51
51617;BME280;37697;52.588;13.394;2022-10-16T23:19:33;101735.91;;;10.62;77.82
51617;BME280;37697;52.588;13.394;2022-10-16T23:24:33;101732.61;;;10.68;78.12
51617;BME280;37697;52.588;13.394;2022-10-16T23:29:34;101718.79;;;10.73;78.27
51617;BME280;37697;52.588;13.394;2022-10-16T23:34:35;101725.66;;;10.78;78.46
51617;BME280;37697;52.588;13.394;2022-10-16T23:39:36;101723.73;;;10.81;78.76
51617;BME280;37697;52.588;13.394;2022-10-16T23:44:36;101736.14;;;10.84;78.82
51617;BME280;37697;52.588;13.394;2022-10-16T23:49:37;101743.00;;;10.86;79.03
51617;BME280;37697;52.588;13.394;2022-10-16T23:54:38;101746.05;;;10.87;79.33
51617;BME280;37697;52.588;13.394;2022-10-16T23:59:38;101749.59;;;10.90;79.37
